Retreat, Georgia
Current Conditions -  °F | °C
As of 6:58 PM on Wednesday 28 Jan 2015 (Local Time) from KLHW Reporting Station
Clear Clear  
Wind Chill: 42°   Ceiling: Unl
Heat Index: 42°   Visibility: 10mi
Dew Point: 30°   Wind: 0mph
Humidity: 63%   Direction: NA
Pressure: 30.28"   Gusts: NA
Location:  31.7217°N, 81.4475°W
Report Text: KLHW 282358Z AUTO 00000KT 10SM CLR 05/M01 A3028 RMK AO2 SLP257 T00531013 10122 20053 52015
Loading
Personal Weather Stations






























Interactive Weather Map New forecast layout! Learn more

10-Day Weather Forecast

Advertisements
Track Severe Weather on mobile